Time,TemperatureF,DewpointF,PressureIn,WindDirection,WindDirectionDegrees,WindSpeedMPH,WindSpeedGustMPH,Humidity,HourlyPrecipIn,Conditions,Clouds,dailyrainin,SoftwareType,DateUTC
2013-04-19 00:01:00,75.1,73.9,29.76,SSW,205,1.0,5.0,96,0.00,,---,0.00,VWS V14.01,2013-04-19 05:01:00,
2013-04-19 00:06:00,75.1,73.9,29.76,South,176,1.0,4.0,96,0.00,,---,0.00,VWS V14.01,2013-04-19 05:06:00,
2013-04-19 00:11:00,75.1,73.9,29.76,SW,218,0.0,4.0,96,0.00,,---,0.00,VWS V14.01,2013-04-19 05:11:00,
2013-04-19 00:16:00,75.0,73.8,29.76,SSW,205,3.0,5.0,96,0.00,,---,0.00,VWS V14.01,2013-04-19 05:16:00,
2013-04-19 00:21:00,75.0,73.8,29.76,South,184,2.0,6.0,96,0.00,,---,0.00,VWS V14.01,2013-04-19 05:21:00,
2013-04-19 00:26:00,75.1,73.9,29.76,SSW,195,0.0,6.0,96,0.00,,---,0.00,VWS V14.01,2013-04-19 05:26:00,
2013-04-19 00:31:00,75.1,73.9,29.76,South,190,0.0,6.0,96,0.00,,---,0.00,VWS V14.01,2013-04-19 05:31:00,
2013-04-19 00:36:00,75.1,73.9,29.76,SSW,205,0.0,3.0,96,0.00,,---,0.00,VWS V14.01,2013-04-19 05:36:00,
2013-04-19 00:41:00,75.0,73.8,29.75,South,187,2.0,5.0,96,0.00,,---,0.00,VWS V14.01,2013-04-19 05:41:00,
2013-04-19 00:46:00,75.1,73.9,29.75,SSE,158,0.0,5.0,96,0.00,,---,0.00,VWS V14.01,2013-04-19 05:46:00,
2013-04-19 00:51:00,75.1,73.9,29.75,South,189,3.0,6.0,96,0.00,,---,0.00,VWS V14.01,2013-04-19 05:51:00,
2013-04-19 00:56:00,75.1,73.9,29.74,SW,224,1.0,6.0,96,0.00,,---,0.00,VWS V14.01,2013-04-19 05:56:00,
2013-04-19 01:01:00,75.1,73.9,29.74,SW,226,0.0,6.0,96,0.00,,---,0.00,VWS V14.01,2013-04-19 06:01:00,
2013-04-19 01:06:00,75.1,73.9,29.74,SSW,208,1.0,3.0,96,0.00,,---,0.00,VWS V14.01,2013-04-19 06:06:00,
2013-04-19 01:11:00,75.2,73.7,29.74,SSW,198,2.0,5.0,95,0.00,,---,0.00,VWS V14.01,2013-04-19 06:11:00,
2013-04-19 01:16:00,75.2,73.7,29.74,SSW,203,1.0,5.0,95,0.00,,---,0.00,VWS V14.01,2013-04-19 06:16:00,
2013-04-19 01:21:00,75.3,73.8,29.73,SSW,212,2.0,10.0,95,0.00,,---,0.00,VWS V14.01,2013-04-19 06:21:00,
2013-04-19 01:26:00,75.3,73.8,29.73,SW,219,2.0,10.0,95,0.00,,---,0.00,VWS V14.01,2013-04-19 06:26:00,
2013-04-19 01:31:00,75.2,73.7,29.73,SSW,204,0.0,10.0,95,0.00,,---,0.00,VWS V14.01,2013-04-19 06:31:00,
2013-04-19 01:36:00,75.2,73.7,29.73,SSW,193,2.0,5.0,95,0.00,,---,0.00,VWS V14.01,2013-04-19 06:36:00,
2013-04-19 01:41:00,75.2,73.7,29.73,SSW,197,2.0,5.0,95,0.00,,---,0.00,VWS V14.01,2013-04-19 06:41:00,
2013-04-19 01:46:00,75.2,73.7,29.73,South,190,3.0,6.0,95,0.00,,---,0.00,VWS V14.01,2013-04-19 06:46:00,
2013-04-19 01:51:00,75.2,73.7,29.73,South,184,1.0,6.0,95,0.00,,---,0.00,VWS V14.01,2013-04-19 06:51:00,
2013-04-19 01:56:00,75.3,73.8,29.73,South,179,2.0,6.0,95,0.00,,---,0.00,VWS V14.01,2013-04-19 06:56:00,
2013-04-19 02:01:00,75.3,73.8,29.73,SW,226,0.0,6.0,95,0.00,,---,0.00,VWS V14.01,2013-04-19 07:01:00,
2013-04-19 02:06:00,75.3,73.8,29.73,SSW,195,3.0,5.0,95,0.00,,---,0.00,VWS V14.01,2013-04-19 07:06:00,
2013-04-19 02:11:00,75.3,73.8,29.73,SSW,212,3.0,5.0,95,0.00,,---,0.00,VWS V14.01,2013-04-19 07:11:00,
2013-04-19 02:16:00,75.3,73.8,29.73,SSE,163,0.0,5.0,95,0.00,,---,0.00,VWS V14.01,2013-04-19 07:16:00,
2013-04-19 02:21:00,75.3,73.8,29.73,SSW,200,2.0,5.0,95,0.00,,---,0.00,VWS V14.01,2013-04-19 07:21:00,
2013-04-19 02:26:00,75.3,73.8,29.73,SSW,210,1.0,6.0,95,0.00,,---,0.00,VWS V14.01,2013-04-19 07:26:00,
2013-04-19 02:31:00,75.3,73.8,29.73,SSW,198,5.0,6.0,95,0.00,,---,0.00,VWS V14.01,2013-04-19 07:31:00,
2013-04-19 02:36:00,75.3,73.5,29.73,ESE,106,3.0,7.0,94,0.00,,---,0.00,VWS V14.01,2013-04-19 07:36:00,
2013-04-19 02:41:00,75.3,73.5,29.73,SW,222,2.0,7.0,94,0.00,,---,0.00,VWS V14.01,2013-04-19 07:41:00,
2013-04-19 02:46:00,75.3,73.5,29.72,South,191,5.0,7.0,94,0.00,,---,0.00,VWS V14.01,2013-04-19 07:46:00,
2013-04-19 02:51:00,75.3,73.5,29.72,SW,221,5.0,7.0,94,0.00,,---,0.00,VWS V14.01,2013-04-19 07:51:00,
2013-04-19 02:56:00,75.3,73.5,29.73,South,191,1.0,7.0,94,0.00,,---,0.00,VWS V14.01,2013-04-19 07:56:00,
2013-04-19 03:01:00,75.2,73.4,29.73,SW,229,4.0,7.0,94,0.00,,---,0.00,VWS V14.01,2013-04-19 08:01:00,
2013-04-19 03:06:00,75.3,73.5,29.73,SSW,203,2.0,4.0,94,0.00,,---,0.00,VWS V14.01,2013-04-19 08:06:00,
2013-04-19 03:11:00,75.3,73.5,29.73,South,191,3.0,5.0,94,0.00,,---,0.00,VWS V14.01,2013-04-19 08:11:00,
2013-04-19 03:16:00,75.3,73.5,29.73,SSW,201,0.0,5.0,94,0.00,,---,0.00,VWS V14.01,2013-04-19 08:16:00,
2013-04-19 03:21:00,75.3,73.5,29.72,SSW,195,4.0,6.0,94,0.00,,---,0.00,VWS V14.01,2013-04-19 08:21:00,
2013-04-19 03:26:00,75.3,73.5,29.72,SSW,195,4.0,6.0,94,0.00,,---,0.00,VWS V14.01,2013-04-19 08:26:00,
2013-04-19 03:31:00,75.3,73.8,29.72,SSE,149,0.0,6.0,95,0.00,,---,0.00,VWS V14.01,2013-04-19 08:31:00,
2013-04-19 03:36:00,75.3,73.8,29.72,SW,221,2.0,3.0,95,0.00,,---,0.00,VWS V14.01,2013-04-19 08:36:00,
2013-04-19 03:41:00,75.2,73.7,29.73,SW,236,1.0,4.0,95,0.00,,---,0.00,VWS V14.01,2013-04-19 08:41:00,
2013-04-19 03:46:00,74.1,70.0,29.73,SSW,198,1.0,5.0,87,0.00,,---,0.00,VWS V14.01,2013-04-19 08:46:00,
2013-04-19 03:51:00,71.3,66.2,29.75,WNW,301,0.0,5.0,84,0.00,,---,0.00,VWS V14.01,2013-04-19 08:51:00,
2013-04-19 03:56:00,68.6,63.9,29.76,WSW,242,0.0,5.0,85,0.00,,---,0.00,VWS V14.01,2013-04-19 08:56:00,
2013-04-19 04:01:00,66.1,62.5,29.76,South,176,2.0,5.0,88,0.07,,---,0.07,VWS V14.01,2013-04-19 09:01:00,
2013-04-19 04:06:00,64.5,61.8,29.77,WSW,238,0.0,5.0,91,0.08,,---,0.08,VWS V14.01,2013-04-19 09:06:00,
2013-04-19 04:11:00,63.5,61.1,29.77,West,270,0.0,5.0,92,0.09,,---,0.09,VWS V14.01,2013-04-19 09:11:00,
2013-04-19 04:16:00,62.7,61.0,29.78,WNW,297,0.0,5.0,94,0.11,,---,0.11,VWS V14.01,2013-04-19 09:16:00,
2013-04-19 04:21:00,62.3,60.8,29.77,NE,51,0.0,5.0,95,0.12,,---,0.12,VWS V14.01,2013-04-19 09:21:00,
2013-04-19 04:26:00,62.0,60.6,29.78,East,91,0.0,5.0,95,0.13,,---,0.13,VWS V14.01,2013-04-19 09:26:00,
2013-04-19 04:31:00,61.8,60.7,29.78,NNE,32,0.0,5.0,96,0.14,,---,0.14,VWS V14.01,2013-04-19 09:31:00,
2013-04-19 04:36:00,61.6,60.5,29.79,ESE,120,0.0,0.0,96,0.14,,---,0.14,VWS V14.01,2013-04-19 09:36:00,
2013-04-19 04:41:00,61.3,60.2,29.79,WNW,294,0.0,1.0,96,0.15,,---,0.15,VWS V14.01,2013-04-19 09:41:00,
2013-04-19 04:45:00,61.0,59.9,29.79,WNW,283,0.0,1.0,96,0.16,,---,0.16,VWS V14.01,2013-04-19 09:45:00,
2013-04-19 04:50:00,60.7,59.6,29.77,ENE,77,0.0,2.0,96,0.16,,---,0.16,VWS V14.01,2013-04-19 09:50:00,
2013-04-19 04:55:00,60.3,59.2,29.77,NE,36,0.0,2.0,96,0.17,,---,0.17,VWS V14.01,2013-04-19 09:55:00,
2013-04-19 05:00:00,60.1,59.0,29.77,West,266,0.0,2.0,96,0.18,,---,0.18,VWS V14.01,2013-04-19 10:00:00,
2013-04-19 05:05:00,60.1,59.2,29.77,WSW,252,0.0,1.0,97,0.05,,---,0.19,VWS V14.01,2013-04-19 10:05:00,
2013-04-19 05:10:00,60.1,59.2,29.77,East,101,0.0,1.0,97,0.06,,---,0.20,VWS V14.01,2013-04-19 10:10:00,
2013-04-19 05:15:00,60.0,59.2,29.79,East,93,0.0,1.0,97,0.06,,---,0.20,VWS V14.01,2013-04-19 10:15:00,
2013-04-19 05:20:00,59.9,59.0,29.79,East,88,0.0,2.0,97,0.06,,---,0.20,VWS V14.01,2013-04-19 10:20:00,
2013-04-19 05:25:00,59.6,58.8,29.79,ENE,64,0.0,3.0,97,0.06,,---,0.20,VWS V14.01,2013-04-19 10:25:00,
2013-04-19 05:30:00,59.5,58.7,29.80,WNW,293,0.0,3.0,97,0.06,,---,0.20,VWS V14.01,2013-04-19 10:30:00,
2013-04-19 05:35:00,59.4,58.5,29.79,WNW,282,0.0,1.0,97,0.06,,---,0.20,VWS V14.01,2013-04-19 10:35:00,
2013-04-19 05:40:00,59.3,58.5,29.79,WNW,283,0.0,1.0,97,0.07,,---,0.21,VWS V14.01,2013-04-19 10:40:00,
2013-04-19 05:45:00,59.1,58.2,29.81,ENE,67,0.0,5.0,97,0.07,,---,0.21,VWS V14.01,2013-04-19 10:45:00,
2013-04-19 05:50:00,58.8,58.0,29.81,East,88,1.0,5.0,97,0.07,,---,0.21,VWS V14.01,2013-04-19 10:50:00,
2013-04-19 05:55:00,58.6,57.8,29.80,NW,318,0.0,5.0,97,0.07,,---,0.21,VWS V14.01,2013-04-19 10:55:00,
2013-04-19 06:00:00,58.3,57.5,29.81,West,272,0.0,5.0,97,0.07,,---,0.21,VWS V14.01,2013-04-19 11:00:00,
2013-04-19 06:05:00,58.3,57.5,29.81,NNW,338,0.0,3.0,97,0.03,,---,0.21,VWS V14.01,2013-04-19 11:05:00,
2013-04-19 06:10:00,58.2,57.4,29.81,ESE,109,1.0,3.0,97,0.03,,---,0.21,VWS V14.01,2013-04-19 11:10:00,
2013-04-19 06:15:00,58.0,57.2,29.82,WNW,302,0.0,3.0,97,0.07,,---,0.25,VWS V14.01,2013-04-19 11:15:00,
2013-04-19 06:20:00,57.8,57.0,29.82,North,11,1.0,3.0,97,0.09,,---,0.27,VWS V14.01,2013-04-19 11:20:00,
2013-04-19 06:25:00,57.6,56.8,29.82,East,96,0.0,3.0,97,0.11,,---,0.29,VWS V14.01,2013-04-19 11:25:00,
2013-04-19 06:30:00,57.5,56.7,29.83,WNW,302,0.0,4.0,97,0.11,,---,0.29,VWS V14.01,2013-04-19 11:30:00,
2013-04-19 06:35:00,57.2,56.4,29.84,WNW,297,0.0,3.0,97,0.10,,---,0.30,VWS V14.01,2013-04-19 11:35:00,
2013-04-19 06:40:00,56.7,55.9,29.85,ESE,102,0.0,5.0,97,0.11,,---,0.31,VWS V14.01,2013-04-19 11:40:00,
2013-04-19 06:45:00,56.1,55.0,29.85,NW,311,1.0,6.0,96,0.11,,---,0.31,VWS V14.01,2013-04-19 11:45:00,
2013-04-19 06:50:00,55.6,54.5,29.86,NW,311,1.0,6.0,96,0.13,,---,0.33,VWS V14.01,2013-04-19 11:50:00,
2013-04-19 06:55:00,55.3,54.2,29.86,WNW,297,0.0,6.0,96,0.15,,---,0.35,VWS V14.01,2013-04-19 11:55:00,
2013-04-19 07:00:00,55.1,54.3,29.89,WSW,252,0.0,6.0,97,0.16,,---,0.37,VWS V14.01,2013-04-19 12:00:00,
2013-04-19 07:05:00,55.0,54.2,29.88,SW,214,0.0,1.0,97,0.22,,---,0.43,VWS V14.01,2013-04-19 12:05:00,
2013-04-19 07:10:00,54.7,53.9,29.89,ENE,69,0.0,2.0,97,0.25,,---,0.46,VWS V14.01,2013-04-19 12:10:00,
2013-04-19 07:15:00,54.5,53.7,29.91,SW,225,0.0,2.0,97,0.29,,---,0.50,VWS V14.01,2013-04-19 12:15:00,
2013-04-19 07:20:00,54.1,53.3,29.92,ESE,105,0.0,4.0,97,0.34,,---,0.55,VWS V14.01,2013-04-19 12:20:00,
2013-04-19 07:25:00,53.7,52.9,29.90,ESE,122,0.0,4.0,97,0.42,,---,0.63,VWS V14.01,2013-04-19 12:25:00,
2013-04-19 07:30:00,53.1,52.3,29.92,WNW,294,0.0,4.0,97,0.51,,---,0.72,VWS V14.01,2013-04-19 12:30:00,
2013-04-19 07:35:00,52.7,51.9,29.93,ESE,120,0.0,2.0,97,0.45,,---,0.74,VWS V14.01,2013-04-19 12:35:00,
2013-04-19 07:40:00,52.6,51.8,29.94,NW,307,0.0,5.0,97,0.46,,---,0.75,VWS V14.01,2013-04-19 12:40:00,
2013-04-19 07:45:00,52.7,51.9,29.95,NNW,340,0.0,5.0,97,0.48,,---,0.77,VWS V14.01,2013-04-19 12:45:00,
2013-04-19 07:50:00,52.6,51.8,29.96,ENE,69,0.0,5.0,97,0.52,,---,0.81,VWS V14.01,2013-04-19 12:50:00,
2013-04-19 07:55:00,52.5,51.7,29.94,ENE,60,1.0,5.0,97,0.55,,---,0.84,VWS V14.01,2013-04-19 12:55:00,
2013-04-19 08:00:00,52.4,51.6,29.95,ESE,117,0.0,5.0,97,0.57,,---,0.86,VWS V14.01,2013-04-19 13:00:00,
2013-04-19 08:05:00,52.3,51.5,29.95,SSW,199,0.0,1.0,97,0.48,,---,0.89,VWS V14.01,2013-04-19 13:05:00,
2013-04-19 08:10:00,52.3,51.5,29.95,WNW,294,0.0,2.0,97,0.50,,---,0.91,VWS V14.01,2013-04-19 13:10:00,
2013-04-19 08:15:00,52.4,51.8,29.96,East,100,0.0,2.0,98,0.53,,---,0.94,VWS V14.01,2013-04-19 13:15:00,
2013-04-19 08:20:00,52.2,51.4,29.96,NE,36,1.0,2.0,97,0.55,,---,0.96,VWS V14.01,2013-04-19 13:20:00,
2013-04-19 08:25:00,52.0,51.2,29.98,NW,311,0.0,3.0,97,0.57,,---,0.98,VWS V14.01,2013-04-19 13:25:00,
2013-04-19 08:30:00,52.0,51.5,29.98,West,260,0.0,3.0,98,0.58,,---,0.99,VWS V14.01,2013-04-19 13:30:00,
2013-04-19 08:35:00,51.7,50.9,29.97,NW,326,1.0,2.0,97,0.27,,---,1.01,VWS V14.01,2013-04-19 13:35:00,
2013-04-19 08:40:00,51.5,50.7,29.99,NNW,330,0.0,2.0,97,0.29,,---,1.03,VWS V14.01,2013-04-19 13:40:00,
2013-04-19 08:45:00,51.4,50.6,29.98,ENE,69,0.0,2.0,97,0.30,,---,1.04,VWS V14.01,2013-04-19 13:45:00,
2013-04-19 08:50:00,51.3,50.5,29.98,NNW,348,0.0,2.0,97,0.30,,---,1.04,VWS V14.01,2013-04-19 13:50:00,
2013-04-19 08:55:00,51.3,50.8,29.97,SSW,199,0.0,2.0,98,0.31,,---,1.05,VWS V14.01,2013-04-19 13:55:00,
2013-04-19 09:00:00,51.3,50.8,29.97,ESE,122,0.0,2.0,98,0.31,,---,1.05,VWS V14.01,2013-04-19 14:00:00,
2013-04-19 09:05:00,51.4,50.9,29.99,SE,132,0.0,0.0,98,0.18,,---,1.06,VWS V14.01,2013-04-19 14:05:00,
2013-04-19 09:10:00,51.5,51.0,29.98,North,6,0.0,2.0,98,0.18,,---,1.06,VWS V14.01,2013-04-19 14:10:00,
2013-04-19 09:15:00,51.5,51.0,29.99,NNE,14,0.0,2.0,98,0.18,,---,1.06,VWS V14.01,2013-04-19 14:15:00,
2013-04-19 09:20:00,51.4,50.9,29.99,NW,314,0.0,2.0,98,0.18,,---,1.06,VWS V14.01,2013-04-19 14:20:00,
2013-04-19 09:25:00,51.2,50.7,29.99,NNE,29,0.0,2.0,98,0.18,,---,1.06,VWS V14.01,2013-04-19 14:25:00,
2013-04-19 09:30:00,51.2,50.7,30.00,WNW,291,0.0,2.0,98,0.18,,---,1.06,VWS V14.01,2013-04-19 14:30:00,
2013-04-19 09:35:00,51.4,50.9,30.01,North,352,0.0,1.0,98,0.06,,---,1.06,VWS V14.01,2013-04-19 14:35:00,
2013-04-19 09:40:00,51.6,51.1,30.00,NW,325,1.0,3.0,98,0.07,,---,1.07,VWS V14.01,2013-04-19 14:40:00,
2013-04-19 09:45:00,51.7,51.2,29.99,NW,309,0.0,3.0,98,0.07,,---,1.07,VWS V14.01,2013-04-19 14:45:00,
2013-04-19 09:50:00,51.5,51.0,29.99,East,96,1.0,3.0,98,0.07,,---,1.07,VWS V14.01,2013-04-19 14:50:00,
2013-04-19 09:55:00,51.5,51.0,29.99,NW,323,0.0,3.0,98,0.08,,---,1.08,VWS V14.01,2013-04-19 14:55:00,
2013-04-19 10:00:00,51.7,51.2,29.98,WSW,257,0.0,3.0,98,0.08,,---,1.08,VWS V14.01,2013-04-19 15:00:00,
2013-04-19 10:05:00,51.6,51.1,29.99,ENE,66,0.0,1.0,98,0.02,,---,1.08,VWS V14.01,2013-04-19 15:05:00,
2013-04-19 10:10:00,51.3,50.5,29.99,NW,326,0.0,3.0,97,0.03,,---,1.09,VWS V14.01,2013-04-19 15:10:00,
2013-04-19 10:15:00,51.3,50.5,29.98,East,87,1.0,4.0,97,0.04,,---,1.10,VWS V14.01,2013-04-19 15:15:00,
2013-04-19 10:20:00,51.4,50.6,29.97,SE,124,0.0,4.0,97,0.04,,---,1.10,VWS V14.01,2013-04-19 15:20:00,
2013-04-19 10:25:00,51.2,50.4,29.97,SSW,212,0.0,4.0,97,0.04,,---,1.10,VWS V14.01,2013-04-19 15:25:00,
2013-04-19 10:30:00,51.3,50.5,29.97,WNW,294,0.0,4.0,97,0.04,,---,1.10,VWS V14.01,2013-04-19 15:30:00,
2013-04-19 10:35:00,51.5,50.7,29.97,WNW,293,1.0,1.0,97,0.04,,---,1.10,VWS V14.01,2013-04-19 15:35:00,
2013-04-19 10:40:00,51.4,50.6,29.97,NNE,19,0.0,3.0,97,0.04,,---,1.10,VWS V14.01,2013-04-19 15:40:00,
2013-04-19 10:45:00,51.4,50.6,29.97,SE,126,0.0,3.0,97,0.04,,---,1.10,VWS V14.01,2013-04-19 15:45:00,
2013-04-19 10:50:00,51.3,50.5,29.97,East,98,0.0,5.0,97,0.04,,---,1.10,VWS V14.01,2013-04-19 15:50:00,
2013-04-19 10:55:00,51.3,50.5,30.00,East,79,0.0,5.0,97,0.04,,---,1.10,VWS V14.01,2013-04-19 15:55:00,
2013-04-19 11:00:00,51.4,50.6,29.99,ESE,112,0.0,5.0,97,0.04,,---,1.10,VWS V14.01,2013-04-19 16:00:00,
2013-04-19 11:05:00,51.4,50.6,29.98,NE,56,1.0,2.0,97,0.02,,---,1.10,VWS V14.01,2013-04-19 16:05:00,
2013-04-19 11:10:00,51.5,50.7,29.97,WNW,302,2.0,5.0,97,0.02,,---,1.10,VWS V14.01,2013-04-19 16:10:00,
2013-04-19 11:15:00,51.6,50.8,29.96,SSW,204,1.0,5.0,97,0.02,,---,1.10,VWS V14.01,2013-04-19 16:15:00,
2013-04-19 11:20:00,51.8,51.0,29.95,WSW,240,0.0,5.0,97,0.02,,---,1.10,VWS V14.01,2013-04-19 16:20:00,
2013-04-19 11:25:00,52.4,51.6,29.95,East,97,2.0,7.0,97,0.02,,---,1.10,VWS V14.01,2013-04-19 16:25:00,
2013-04-19 11:30:00,52.6,51.8,29.95,WSW,238,0.0,7.0,97,0.02,,---,1.10,VWS V14.01,2013-04-19 16:30:00,
2013-04-19 11:35:00,52.6,51.5,29.94,West,280,0.0,1.0,96,0.00,,---,1.10,VWS V14.01,2013-04-19 16:35:00,
2013-04-19 11:40:00,52.6,51.5,29.94,ENE,72,1.0,2.0,96,0.00,,---,1.10,VWS V14.01,2013-04-19 16:40:00,
2013-04-19 11:45:00,52.4,51.0,29.96,ESE,103,0.0,3.0,95,0.00,,---,1.10,VWS V14.01,2013-04-19 16:45:00,
2013-04-19 11:50:00,52.2,50.8,29.97,WSW,243,0.0,3.0,95,0.00,,---,1.10,VWS V14.01,2013-04-19 16:50:00,
2013-04-19 11:55:00,52.1,51.0,30.01,WSW,246,0.0,3.0,96,0.00,,---,1.10,VWS V14.01,2013-04-19 16:55:00,
2013-04-19 12:00:00,52.0,50.9,30.05,WSW,254,0.0,3.0,96,0.00,,---,1.10,VWS V14.01,2013-04-19 17:00:00,
2013-04-19 12:05:00,52.0,50.9,30.04,NE,39,2.0,2.0,96,0.00,,---,1.10,VWS V14.01,2013-04-19 17:05:00,
2013-04-19 12:10:00,51.6,50.5,30.01,ENE,60,0.0,4.0,96,0.01,,---,1.11,VWS V14.01,2013-04-19 17:10:00,
2013-04-19 12:15:00,51.2,49.8,30.01,NNW,327,0.0,4.0,95,0.02,,---,1.12,VWS V14.01,2013-04-19 17:15:00,
2013-04-19 12:20:00,51.3,50.2,29.98,ESE,117,2.0,4.0,96,0.02,,---,1.12,VWS V14.01,2013-04-19 17:20:00,
2013-04-19 12:25:00,50.8,49.7,29.98,SE,128,0.0,5.0,96,0.02,,---,1.12,VWS V14.01,2013-04-19 17:25:00,
2013-04-19 12:30:00,50.7,49.6,30.00,WNW,290,0.0,5.0,96,0.02,,---,1.12,VWS V14.01,2013-04-19 17:30:00,
2013-04-19 12:35:00,50.7,49.6,29.99,WNW,291,0.0,0.0,96,0.02,,---,1.12,VWS V14.01,2013-04-19 17:35:00,
2013-04-19 12:40:00,50.6,49.5,29.98,NW,307,0.0,1.0,96,0.03,,---,1.13,VWS V14.01,2013-04-19 17:40:00,
2013-04-19 12:45:00,50.3,49.2,29.98,NW,307,0.0,3.0,96,0.03,,---,1.13,VWS V14.01,2013-04-19 17:45:00,
2013-04-19 12:50:00,50.2,49.1,29.95,NNW,336,0.0,3.0,96,0.03,,---,1.13,VWS V14.01,2013-04-19 17:50:00,
2013-04-19 12:56:00,50.0,48.9,29.98,West,274,0.0,4.0,96,0.03,,---,1.13,VWS V14.01,2013-04-19 17:56:00,
2013-04-19 13:01:00,49.9,48.8,30.01,SE,136,0.0,4.0,96,0.04,,---,1.14,VWS V14.01,2013-04-19 18:01:00,
2013-04-19 13:06:00,49.9,48.8,30.01,SE,136,0.0,0.0,96,0.04,,---,1.14,VWS V14.01,2013-04-19 18:06:00,
2013-04-19 13:11:00,50.0,48.9,29.99,WNW,284,0.0,2.0,96,0.05,,---,1.15,VWS V14.01,2013-04-19 18:11:00,
2013-04-19 13:16:00,49.9,48.8,30.00,NNW,342,0.0,2.0,96,0.05,,---,1.15,VWS V14.01,2013-04-19 18:16:00,
2013-04-19 13:21:00,50.1,49.3,30.01,WSW,244,0.0,2.0,97,0.06,,---,1.16,VWS V14.01,2013-04-19 18:21:00,
2013-04-19 13:26:00,50.1,49.3,30.00,ENE,77,0.0,2.0,97,0.06,,---,1.16,VWS V14.01,2013-04-19 18:26:00,
2013-04-19 13:31:00,50.1,49.3,29.98,East,99,0.0,2.0,97,0.06,,---,1.16,VWS V14.01,2013-04-19 18:31:00,
2013-04-19 13:36:00,50.1,49.3,29.97,East,84,0.0,1.0,97,0.04,,---,1.16,VWS V14.01,2013-04-19 18:36:00,
2013-04-19 13:41:00,49.8,48.7,29.95,WSW,257,0.0,5.0,96,0.04,,---,1.16,VWS V14.01,2013-04-19 18:41:00,
2013-04-19 13:46:00,49.6,48.5,29.97,NW,304,0.0,5.0,96,0.04,,---,1.16,VWS V14.01,2013-04-19 18:46:00,
2013-04-19 13:51:00,49.5,48.4,29.95,North,352,0.0,5.0,96,0.05,,---,1.17,VWS V14.01,2013-04-19 18:51:00,
2013-04-19 13:56:00,49.5,48.4,29.95,SE,124,0.0,5.0,96,0.05,,---,1.17,VWS V14.01,2013-04-19 18:56:00,
2013-04-19 14:01:00,49.5,48.4,29.94,NE,44,1.0,5.0,96,0.06,,---,1.18,VWS V14.01,2013-04-19 19:01:00,
2013-04-19 14:06:00,49.5,48.7,29.97,East,81,0.0,2.0,97,0.04,,---,1.18,VWS V14.01,2013-04-19 19:06:00,
2013-04-19 14:11:00,49.6,48.8,29.97,NNW,343,0.0,2.0,97,0.04,,---,1.18,VWS V14.01,2013-04-19 19:11:00,
2013-04-19 14:16:00,49.7,48.9,29.97,SE,129,0.0,2.0,97,0.04,,---,1.18,VWS V14.01,2013-04-19 19:16:00,
2013-04-19 14:21:00,49.6,48.8,29.97,WSW,257,0.0,2.0,97,0.04,,---,1.18,VWS V14.01,2013-04-19 19:21:00,
2013-04-19 14:26:00,49.7,48.9,29.97,SE,129,0.0,2.0,97,0.04,,---,1.18,VWS V14.01,2013-04-19 19:26:00,
2013-04-19 14:31:00,50.1,49.3,29.97,NW,323,1.0,2.0,97,0.04,,---,1.18,VWS V14.01,2013-04-19 19:31:00,
2013-04-19 14:36:00,50.2,49.4,29.98,West,269,0.0,0.0,97,0.02,,---,1.18,VWS V14.01,2013-04-19 19:36:00,
2013-04-19 14:41:00,50.1,49.3,29.97,East,98,1.0,2.0,97,0.02,,---,1.18,VWS V14.01,2013-04-19 19:41:00,
2013-04-19 14:47:00,50.0,48.9,29.97,NW,311,0.0,2.0,96,0.02,,---,1.18,VWS V14.01,2013-04-19 19:47:00,
2013-04-19 14:52:00,50.2,49.4,29.98,NW,309,0.0,2.0,97,0.02,,---,1.18,VWS V14.01,2013-04-19 19:52:00,
2013-04-19 14:57:00,50.3,49.5,29.99,NW,309,0.0,2.0,97,0.02,,---,1.18,VWS V14.01,2013-04-19 19:57:00,
2013-04-19 15:02:00,50.5,49.7,29.98,ESE,118,0.0,2.0,97,0.02,,---,1.18,VWS V14.01,2013-04-19 20:02:00,
2013-04-19 15:07:00,50.7,49.9,29.99,WNW,297,0.0,0.0,97,0.00,,---,1.18,VWS V14.01,2013-04-19 20:07:00,
2013-04-19 15:12:00,50.7,49.9,29.99,WNW,299,0.0,0.0,97,0.00,,---,1.18,VWS V14.01,2013-04-19 20:12:00,
2013-04-19 15:17:00,50.7,49.9,29.98,West,267,0.0,0.0,97,0.00,,---,1.18,VWS V14.01,2013-04-19 20:17:00,
2013-04-19 15:22:00,50.8,50.0,29.98,West,266,0.0,0.0,97,0.00,,---,1.18,VWS V14.01,2013-04-19 20:22:00,
2013-04-19 15:27:00,50.5,49.4,29.97,NNE,20,0.0,0.0,96,0.00,,---,1.18,VWS V14.01,2013-04-19 20:27:00,
2013-04-19 15:32:00,50.5,49.4,29.97,NNW,344,0.0,0.0,96,0.00,,---,1.18,VWS V14.01,2013-04-19 20:32:00,
2013-04-19 15:37:00,50.4,49.3,29.96,NNW,344,0.0,0.0,96,0.00,,---,1.18,VWS V14.01,2013-04-19 20:37:00,
2013-04-19 15:42:00,50.4,49.3,29.96,West,278,0.0,0.0,96,0.01,,---,1.19,VWS V14.01,2013-04-19 20:42:00,
2013-04-19 15:47:00,50.4,49.3,29.97,West,263,0.0,1.0,96,0.01,,---,1.19,VWS V14.01,2013-04-19 20:47:00,
2013-04-19 15:52:00,50.4,49.6,29.98,West,263,0.0,1.0,97,0.01,,---,1.19,VWS V14.01,2013-04-19 20:52:00,
2013-04-19 15:57:00,50.4,49.6,29.96,West,263,0.0,1.0,97,0.01,,---,1.19,VWS V14.01,2013-04-19 20:57:00,
2013-04-19 16:02:00,50.5,49.7,29.97,West,262,0.0,1.0,97,0.01,,---,1.19,VWS V14.01,2013-04-19 21:02:00,
2013-04-19 16:07:00,50.8,50.0,29.97,West,263,0.0,0.0,97,0.01,,---,1.19,VWS V14.01,2013-04-19 21:07:00,
2013-04-19 16:12:00,50.9,50.1,29.97,West,263,0.0,0.0,97,0.01,,---,1.19,VWS V14.01,2013-04-19 21:12:00,
2013-04-19 16:17:00,51.2,50.4,29.96,West,263,0.0,0.0,97,0.01,,---,1.19,VWS V14.01,2013-04-19 21:17:00,
2013-04-19 16:22:00,51.4,50.6,29.95,WSW,252,1.0,1.0,97,0.01,,---,1.19,VWS V14.01,2013-04-19 21:22:00,
2013-04-19 16:27:00,51.4,50.6,29.94,South,172,0.0,1.0,97,0.01,,---,1.19,VWS V14.01,2013-04-19 21:27:00,
2013-04-19 16:32:00,51.4,50.6,29.95,WNW,288,0.0,1.0,97,0.01,,---,1.19,VWS V14.01,2013-04-19 21:32:00,
2013-04-19 16:37:00,51.5,50.7,29.95,WNW,290,0.0,0.0,97,0.01,,---,1.19,VWS V14.01,2013-04-19 21:37:00,
2013-04-19 16:42:00,51.7,50.9,29.95,NW,316,0.0,0.0,97,0.01,,---,1.19,VWS V14.01,2013-04-19 21:42:00,
2013-04-19 16:47:00,51.9,51.1,29.95,NNW,343,0.0,0.0,97,0.01,,---,1.19,VWS V14.01,2013-04-19 21:47:00,
2013-04-19 16:52:00,52.1,51.3,29.96,East,98,0.0,1.0,97,0.01,,---,1.19,VWS V14.01,2013-04-19 21:52:00,
2013-04-19 16:57:00,51.9,50.8,29.95,ESE,120,0.0,1.0,96,0.01,,---,1.19,VWS V14.01,2013-04-19 21:57:00,
2013-04-19 17:02:00,51.8,50.7,29.95,ESE,120,0.0,1.0,96,0.01,,---,1.19,VWS V14.01,2013-04-19 22:02:00,
2013-04-19 17:07:00,51.6,50.2,29.95,WNW,301,1.0,1.0,95,0.00,,---,1.19,VWS V14.01,2013-04-19 22:07:00,
2013-04-19 17:12:00,51.3,49.6,29.95,North,6,0.0,3.0,94,0.00,,---,1.19,VWS V14.01,2013-04-19 22:12:00,
2013-04-19 17:17:00,51.3,49.9,29.96,ESE,117,0.0,3.0,95,0.00,,---,1.19,VWS V14.01,2013-04-19 22:17:00,
2013-04-19 17:22:00,51.2,49.8,29.96,WSW,255,0.0,3.0,95,0.00,,---,1.19,VWS V14.01,2013-04-19 22:22:00,
2013-04-19 17:27:00,51.1,49.7,29.96,ENE,77,0.0,3.0,95,0.00,,---,1.19,VWS V14.01,2013-04-19 22:27:00,
2013-04-19 17:32:00,51.1,49.7,29.96,East,94,0.0,3.0,95,0.00,,---,1.19,VWS V14.01,2013-04-19 22:32:00,
2013-04-19 17:37:00,51.1,49.4,29.96,East,100,0.0,5.0,94,0.00,,---,1.19,VWS V14.01,2013-04-19 22:37:00,
2013-04-19 17:41:00,51.2,49.5,29.97,ESE,113,0.0,5.0,94,0.00,,---,1.19,VWS V14.01,2013-04-19 22:41:00,
2013-04-19 17:46:00,50.9,49.0,29.98,SE,141,0.0,5.0,93,0.00,,---,1.19,VWS V14.01,2013-04-19 22:46:00,
2013-04-19 17:51:00,50.9,49.2,29.99,NW,318,0.0,5.0,94,0.00,,---,1.19,VWS V14.01,2013-04-19 22:51:00,
2013-04-19 17:56:00,50.9,49.2,29.99,NW,319,0.0,5.0,94,0.00,,---,1.19,VWS V14.01,2013-04-19 22:56:00,
2013-04-19 18:01:00,51.0,49.3,30.00,NW,319,0.0,5.0,94,0.00,,---,1.19,VWS V14.01,2013-04-19 23:01:00,
2013-04-19 18:06:00,51.2,49.8,30.00,NW,319,0.0,0.0,95,0.00,,---,1.19,VWS V14.01,2013-04-19 23:06:00,
2013-04-19 18:11:00,51.3,49.9,30.00,NW,319,0.0,0.0,95,0.00,,---,1.19,VWS V14.01,2013-04-19 23:11:00,
2013-04-19 18:16:00,51.4,50.0,30.01,NW,319,0.0,0.0,95,0.00,,---,1.19,VWS V14.01,2013-04-19 23:16:00,
2013-04-19 18:21:00,51.4,49.7,30.01,NW,319,0.0,0.0,94,0.00,,---,1.19,VWS V14.01,2013-04-19 23:21:00,
2013-04-19 18:26:00,51.3,49.6,30.01,NW,319,0.0,0.0,94,0.00,,---,1.19,VWS V14.01,2013-04-19 23:26:00,
2013-04-19 18:31:00,51.2,49.8,30.01,NW,319,0.0,0.0,95,0.00,,---,1.19,VWS V14.01,2013-04-19 23:31:00,
2013-04-19 18:36:00,51.0,49.6,30.00,NW,319,0.0,0.0,95,0.00,,---,1.19,VWS V14.01,2013-04-19 23:36:00,
2013-04-19 18:41:00,51.0,49.6,30.00,NW,319,0.0,0.0,95,0.00,,---,1.19,VWS V14.01,2013-04-19 23:41:00,
2013-04-19 18:46:00,50.8,49.4,30.00,NW,319,0.0,0.0,95,0.00,,---,1.19,VWS V14.01,2013-04-19 23:46:00,
2013-04-19 18:51:00,50.7,49.3,30.00,NW,319,0.0,0.0,95,0.00,,---,1.19,VWS V14.01,2013-04-19 23:51:00,
2013-04-19 18:56:00,50.4,49.0,30.01,NW,319,0.0,0.0,95,0.00,,---,1.19,VWS V14.01,2013-04-19 23:56:00,
2013-04-19 19:01:00,50.1,48.7,30.01,NW,319,0.0,0.0,95,0.00,,---,1.19,VWS V14.01,2013-04-20 00:01:00,
2013-04-19 19:06:00,50.0,48.6,30.01,NW,319,0.0,0.0,95,0.00,,---,1.19,VWS V14.01,2013-04-20 00:06:00,
2013-04-19 19:11:00,50.1,49.0,30.01,NW,319,0.0,0.0,96,0.00,,---,1.19,VWS V14.01,2013-04-20 00:11:00,
2013-04-19 19:16:00,50.1,49.0,30.02,NW,319,0.0,0.0,96,0.00,,---,1.19,VWS V14.01,2013-04-20 00:16:00,
2013-04-19 19:21:00,50.0,48.9,30.01,NW,319,0.0,0.0,96,0.00,,---,1.19,VWS V14.01,2013-04-20 00:21:00,
2013-04-19 19:26:00,50.0,48.9,30.01,NW,319,0.0,0.0,96,0.00,,---,1.19,VWS V14.01,2013-04-20 00:26:00,
2013-04-19 19:31:00,49.8,48.7,30.01,NW,319,0.0,0.0,96,0.00,,---,1.19,VWS V14.01,2013-04-20 00:31:00,
2013-04-19 19:36:00,49.4,48.3,30.02,NW,319,0.0,0.0,96,0.00,,---,1.19,VWS V14.01,2013-04-20 00:36:00,
2013-04-19 19:41:00,49.1,48.0,30.02,NW,319,0.0,0.0,96,0.00,,---,1.19,VWS V14.01,2013-04-20 00:41:00,
2013-04-19 19:46:00,48.8,47.7,30.02,NW,319,0.0,0.0,96,0.00,,---,1.19,VWS V14.01,2013-04-20 00:46:00,
2013-04-19 19:51:00,48.5,47.4,30.02,NW,319,0.0,0.0,96,0.00,,---,1.19,VWS V14.01,2013-04-20 00:51:00,
2013-04-19 19:56:00,48.3,47.2,30.02,NW,319,0.0,0.0,96,0.00,,---,1.19,VWS V14.01,2013-04-20 00:56:00,
2013-04-19 20:01:00,48.0,46.9,30.03,NW,319,0.0,0.0,96,0.00,,---,1.19,VWS V14.01,2013-04-20 01:01:00,
2013-04-19 20:06:00,47.7,46.6,30.03,NW,319,0.0,0.0,96,0.00,,---,1.19,VWS V14.01,2013-04-20 01:06:00,
2013-04-19 20:11:00,47.5,46.4,30.03,NW,319,0.0,0.0,96,0.00,,---,1.19,VWS V14.01,2013-04-20 01:11:00,
2013-04-19 20:16:00,47.3,46.5,30.03,NW,319,0.0,0.0,97,0.00,,---,1.19,VWS V14.01,2013-04-20 01:16:00,
2013-04-19 20:21:00,47.2,46.4,30.04,NW,319,0.0,0.0,97,0.00,,---,1.19,VWS V14.01,2013-04-20 01:21:00,
2013-04-19 20:26:00,47.0,46.2,30.04,NW,319,0.0,0.0,97,0.00,,---,1.19,VWS V14.01,2013-04-20 01:26:00,
2013-04-19 20:31:00,46.8,46.0,30.04,NW,319,0.0,0.0,97,0.00,,---,1.19,VWS V14.01,2013-04-20 01:31:00,
2013-04-19 20:36:00,46.5,45.7,30.05,NW,319,0.0,0.0,97,0.00,,---,1.19,VWS V14.01,2013-04-20 01:36:00,
2013-04-19 20:41:00,46.3,45.5,30.05,NW,319,0.0,0.0,97,0.00,,---,1.19,VWS V14.01,2013-04-20 01:41:00,
2013-04-19 20:46:00,46.2,45.4,30.05,NW,319,0.0,0.0,97,0.00,,---,1.19,VWS V14.01,2013-04-20 01:46:00,
2013-04-19 20:51:00,46.1,45.3,30.05,NW,319,0.0,0.0,97,0.00,,---,1.19,VWS V14.01,2013-04-20 01:51:00,
2013-04-19 20:56:00,45.8,45.0,30.05,NW,319,0.0,0.0,97,0.00,,---,1.19,VWS V14.01,2013-04-20 01:56:00,
2013-04-19 21:01:00,45.6,44.8,30.05,NW,319,0.0,0.0,97,0.00,,---,1.19,VWS V14.01,2013-04-20 02:01:00,
2013-04-19 21:06:00,45.5,44.7,30.05,NW,319,0.0,0.0,97,0.00,,---,1.19,VWS V14.01,2013-04-20 02:06:00,
2013-04-19 21:11:00,45.3,44.5,30.05,NW,319,0.0,0.0,97,0.00,,---,1.19,VWS V14.01,2013-04-20 02:11:00,